createdAt,value
2022-10-29T00:02:11.985Z,26.58
2022-10-29T00:04:38.647Z,24.48
2022-10-29T00:07:05.295Z,25.02
2022-10-29T00:09:31.994Z,26.33
2022-10-29T00:11:58.740Z,20.65
2022-10-29T00:14:25.754Z,18.08
2022-10-29T00:16:52.554Z,15.75
2022-10-29T00:19:19.345Z,46.28
2022-10-29T00:21:45.984Z,20.15
2022-10-29T00:24:12.575Z,12.93
2022-10-29T00:26:39.158Z,17.83
2022-10-29T00:29:05.969Z,18.42
2022-10-29T00:31:32.741Z,17.08
2022-10-29T00:33:59.322Z,20.92
2022-10-29T00:36:28.612Z,19.90
2022-10-29T00:38:57.726Z,16.23
2022-10-29T00:41:27.144Z,15.10
2022-10-29T00:44:15.704Z,13.32
2022-10-29T00:46:47.581Z,12.93
2022-10-29T00:49:15.917Z,18.30
2022-10-29T00:51:43.528Z,18.65
2022-10-29T00:54:12.270Z,16.80
2022-10-29T00:56:44.724Z,20.50
2022-10-29T00:59:12.538Z,33.45
2022-10-29T01:01:39.714Z,31.55
2022-10-29T01:04:06.719Z,16.38
2022-10-29T01:06:33.607Z,24.75
2022-10-29T01:09:00.819Z,21.95
2022-10-29T01:11:58.345Z,18.42
2022-10-29T01:14:52.992Z,21.45
2022-10-29T01:17:32.884Z,16.02
2022-10-29T01:20:43.164Z,15.10
2022-10-29T01:23:19.027Z,15.85
2022-10-29T01:26:18.423Z,15.77
2022-10-29T01:33:08.670Z,164.48
2022-10-29T01:35:51.873Z,265.30
2022-10-29T01:38:33.343Z,151.57
2022-10-29T01:40:59.880Z,26.65
2022-10-29T01:44:05.991Z,38.67
2022-10-29T01:46:54.714Z,52.35
2022-10-29T01:49:28.425Z,19.63
2022-10-29T01:51:56.857Z,21.23
2022-10-29T01:54:23.839Z,15.50
2022-10-29T01:56:55.242Z,29.23
2022-10-29T01:59:35.674Z,16.48
2022-10-29T02:02:26.196Z,20.23
2022-10-29T02:05:15.706Z,20.50
2022-10-29T02:07:54.657Z,18.20
2022-10-29T02:10:28.665Z,19.77
2022-10-29T02:12:57.118Z,14.98
2022-10-29T02:15:48.444Z,13.57
2022-10-29T02:18:16.301Z,14.30
2022-10-29T02:20:45.486Z,15.70
2022-10-29T02:23:12.719Z,20.65
2022-10-29T02:25:39.538Z,30.85
2022-10-29T02:28:06.671Z,17.10
2022-10-29T02:30:33.606Z,24.92
2022-10-29T02:33:00.340Z,26.75
2022-10-29T02:35:26.992Z,14.77
2022-10-29T02:37:53.856Z,15.10
2022-10-29T02:40:20.431Z,19.67
2022-10-29T02:42:46.911Z,19.52
2022-10-29T02:45:13.502Z,15.30
2022-10-29T02:47:40.094Z,20.52
2022-10-29T02:50:07.409Z,24.45
2022-10-29T02:52:34.153Z,20.40
2022-10-29T02:55:01.042Z,14.35
2022-10-29T02:57:30.052Z,17.15
2022-10-29T02:59:59.962Z,15.00
2022-10-29T03:02:26.786Z,19.75
2022-10-29T03:04:53.450Z,25.77
2022-10-29T03:07:20.360Z,15.13
2022-10-29T03:09:46.902Z,19.05
2022-10-29T03:12:13.424Z,19.67
2022-10-29T03:14:39.998Z,15.30
2022-10-29T03:17:06.536Z,19.98
2022-10-29T03:19:33.104Z,16.35
2022-10-29T03:21:59.659Z,20.25
2022-10-29T03:24:26.239Z,14.95
2022-10-29T03:26:52.819Z,24.92
2022-10-29T03:29:19.500Z,22.38
2022-10-29T03:31:46.086Z,15.52
2022-10-29T03:34:12.644Z,17.15
2022-10-29T03:36:39.267Z,22.02
2022-10-29T03:39:06.141Z,21.05
2022-10-29T03:41:32.806Z,26.95
2022-10-29T03:43:59.365Z,19.67
2022-10-29T03:46:25.948Z,19.55
2022-10-29T03:48:52.514Z,21.67
2022-10-29T03:51:19.077Z,20.33
2022-10-29T03:53:45.644Z,21.17
2022-10-29T03:56:12.213Z,14.80
2022-10-29T03:58:38.827Z,15.88
2022-10-29T04:01:07.835Z,17.98
2022-10-29T04:03:36.245Z,19.15
2022-10-29T04:06:09.591Z,22.20
2022-10-29T04:08:36.218Z,15.45
2022-10-29T04:11:02.825Z,17.33
2022-10-29T04:13:29.528Z,17.15
2022-10-29T04:15:56.403Z,17.95
2022-10-29T04:18:24.532Z,18.27
2022-10-29T04:29:12.040Z,24.35
2022-10-29T04:31:38.901Z,22.23
2022-10-29T04:34:06.282Z,18.52
2022-10-29T04:36:32.915Z,24.13
2022-10-29T04:38:59.585Z,25.40
2022-10-29T04:41:26.235Z,22.63
2022-10-29T04:43:52.812Z,19.13
2022-10-29T04:46:19.385Z,13.07
2022-10-29T04:48:46.007Z,18.75
2022-10-29T04:51:19.734Z,14.90
2022-10-29T04:53:46.363Z,21.52
2022-10-29T04:56:12.906Z,20.55
2022-10-29T04:58:39.566Z,18.75
2022-10-29T05:01:06.482Z,23.00
2022-10-29T05:03:33.793Z,28.08
2022-10-29T05:06:06.315Z,20.67
2022-10-29T05:08:33.649Z,22.65
2022-10-29T05:11:05.045Z,24.27
2022-10-29T05:13:32.373Z,20.55
2022-10-29T05:15:59.043Z,18.70
2022-10-29T05:18:25.798Z,19.88
2022-10-29T05:20:56.289Z,18.73
2022-10-29T05:23:23.372Z,22.50
2022-10-29T05:25:52.075Z,21.52
2022-10-29T05:28:21.196Z,23.60
2022-10-29T05:30:49.452Z,23.30
2022-10-29T05:33:18.884Z,20.48
2022-10-29T05:35:46.209Z,21.85
2022-10-29T05:38:14.049Z,11.98
2022-10-29T05:40:42.741Z,24.40
2022-10-29T05:43:09.562Z,15.70
2022-10-29T05:45:36.129Z,18.52
2022-10-29T05:48:04.415Z,16.90
2022-10-29T05:50:32.403Z,18.33
2022-10-29T05:53:04.628Z,19.95
2022-10-29T05:55:33.283Z,17.25
2022-10-29T05:58:01.946Z,19.05
2022-10-29T06:00:31.257Z,19.05
2022-10-29T06:02:58.408Z,19.42
2022-10-29T06:05:26.001Z,14.35
2022-10-29T06:08:00.764Z,13.38
2022-10-29T06:10:29.184Z,17.55
2022-10-29T06:12:55.723Z,17.92
2022-10-29T06:15:23.081Z,18.95
2022-10-29T06:17:49.874Z,21.95
2022-10-29T06:20:20.919Z,16.02
2022-10-29T06:22:47.940Z,16.45
2022-10-29T06:25:14.668Z,14.63
2022-10-29T06:27:41.205Z,19.85
2022-10-29T06:30:08.527Z,18.08
2022-10-29T06:32:35.108Z,18.02
2022-10-29T06:35:01.669Z,17.10
2022-10-29T06:37:29.666Z,19.70
2022-10-29T06:39:56.311Z,17.02
2022-10-29T06:42:22.920Z,18.55
2022-10-29T06:44:49.681Z,26.65
2022-10-29T06:47:16.212Z,19.15
2022-10-29T06:49:42.827Z,15.07
2022-10-29T06:52:09.430Z,12.40
2022-10-29T06:54:38.776Z,16.92
2022-10-29T06:57:05.466Z,23.20
2022-10-29T06:59:32.248Z,20.40
2022-10-29T07:02:02.127Z,15.05
2022-10-29T07:04:29.235Z,19.45
2022-10-29T07:06:56.172Z,28.55
2022-10-29T07:09:22.801Z,10.93
2022-10-29T07:11:49.481Z,13.80
2022-10-29T07:14:16.001Z,14.05
2022-10-29T07:16:42.758Z,11.32
2022-10-29T07:19:09.683Z,13.95
2022-10-29T07:21:37.006Z,22.92
2022-10-29T07:24:03.826Z,17.80
2022-10-29T07:26:30.553Z,16.58
2022-10-29T07:28:57.859Z,12.10
2022-10-29T07:31:25.015Z,18.25
2022-10-29T07:33:51.686Z,20.88
2022-10-29T07:36:18.265Z,13.23
2022-10-29T07:38:45.044Z,17.52
2022-10-29T07:41:11.640Z,17.30
2022-10-29T07:43:38.410Z,14.35
2022-10-29T07:46:05.092Z,16.58
2022-10-29T07:48:31.643Z,18.85
2022-10-29T07:51:05.385Z,12.70
2022-10-29T07:53:32.691Z,14.98
2022-10-29T07:55:59.606Z,12.48
2022-10-29T07:58:27.237Z,16.25
2022-10-29T08:00:54.569Z,14.82
2022-10-29T08:03:21.866Z,16.90
2022-10-29T08:05:56.276Z,20.15
2022-10-29T08:08:26.685Z,15.18
2022-10-29T08:10:53.607Z,13.88
2022-10-29T08:13:20.268Z,10.10
2022-10-29T08:15:47.170Z,13.85
2022-10-29T08:18:18.016Z,12.38
2022-10-29T08:20:45.398Z,19.70
2022-10-29T08:23:13.239Z,21.55
2022-10-29T08:25:43.052Z,18.33
2022-10-29T08:28:15.137Z,15.93
2022-10-29T08:30:44.224Z,18.02
2022-10-29T08:33:11.474Z,18.42
2022-10-29T08:35:38.275Z,21.15
2022-10-29T08:38:05.468Z,24.20
2022-10-29T08:40:56.973Z,16.35
2022-10-29T08:43:48.861Z,18.27
2022-10-29T08:46:24.778Z,31.48
2022-10-29T08:49:02.648Z,13.63
2022-10-29T08:51:37.250Z,20.15
2022-10-29T08:54:25.635Z,14.57
2022-10-29T08:56:55.165Z,17.05
2022-10-29T08:59:24.736Z,16.10
2022-10-29T09:01:55.227Z,20.92
2022-10-29T09:04:26.384Z,15.35
2022-10-29T09:07:17.854Z,14.80
2022-10-29T09:09:53.836Z,19.08
2022-10-29T09:12:39.146Z,12.35
2022-10-29T09:15:27.157Z,24.23
2022-10-29T09:18:16.588Z,9.32
2022-10-29T09:20:51.964Z,15.43
2022-10-29T09:23:25.901Z,10.38
2022-10-29T09:26:01.200Z,12.90
2022-10-29T09:28:33.975Z,10.75
2022-10-29T09:31:31.466Z,14.77
2022-10-29T09:34:04.139Z,21.60
2022-10-29T09:36:31.687Z,13.85
2022-10-29T09:39:05.193Z,16.30
2022-10-29T09:41:34.622Z,14.55
2022-10-29T09:44:04.635Z,12.95
2022-10-29T09:49:29.635Z,14.48
2022-10-29T09:52:02.527Z,16.52
2022-10-29T09:54:31.049Z,13.30
2022-10-29T09:57:00.976Z,17.30
2022-10-29T09:59:35.818Z,13.80
2022-10-29T10:02:04.458Z,12.70
2022-10-29T10:04:37.705Z,15.23
2022-10-29T10:07:05.979Z,13.43
2022-10-29T10:09:55.721Z,18.60
2022-10-29T10:12:26.645Z,13.90
2022-10-29T10:15:21.441Z,18.13
2022-10-29T10:18:04.837Z,12.55
2022-10-29T10:20:46.820Z,16.63
2022-10-29T10:23:24.684Z,16.70
2022-10-29T10:25:54.123Z,16.95
2022-10-29T10:28:25.631Z,12.60
2022-10-29T10:31:06.720Z,24.13
2022-10-29T10:33:36.062Z,18.58
2022-10-29T10:36:09.094Z,11.82
2022-10-29T10:38:54.077Z,17.58
2022-10-29T10:41:30.754Z,13.63
2022-10-29T10:44:03.776Z,8.68
2022-10-29T10:46:42.780Z,12.25
2022-10-29T10:49:20.919Z,18.08
2022-10-29T10:51:56.364Z,14.73
2022-10-29T10:54:31.417Z,17.00
2022-10-29T10:57:01.937Z,11.93
2022-10-29T10:59:43.040Z,11.52
2022-10-29T11:02:27.444Z,11.93
2022-10-29T11:05:14.976Z,8.20
2022-10-29T11:07:48.333Z,24.80
2022-10-29T11:10:18.276Z,16.63
2022-10-29T11:12:54.436Z,18.80
2022-10-29T11:15:39.383Z,17.52
2022-10-29T11:18:21.934Z,16.00
2022-10-29T11:21:05.448Z,12.10
2022-10-29T11:23:53.821Z,19.30
2022-10-29T11:26:45.223Z,15.85
2022-10-29T11:29:20.970Z,16.52
2022-10-29T11:32:11.315Z,16.58
2022-10-29T11:34:37.873Z,16.17
2022-10-29T11:37:21.352Z,18.08
2022-10-29T11:39:57.837Z,18.75
2022-10-29T11:42:25.474Z,20.25
2022-10-29T11:44:52.444Z,16.38
2022-10-29T11:47:27.294Z,15.93
2022-10-29T11:50:03.000Z,16.35
2022-10-29T11:52:46.532Z,18.35
2022-10-29T11:55:23.585Z,14.57
2022-10-29T11:58:01.369Z,15.88
2022-10-29T12:00:34.626Z,15.93
2022-10-29T12:03:16.378Z,22.30
2022-10-29T12:05:59.448Z,24.80
2022-10-29T12:08:25.910Z,24.10
2022-10-29T12:11:07.772Z,20.67
2022-10-29T12:13:43.575Z,18.48
2022-10-29T12:16:35.529Z,17.05
2022-10-29T12:19:33.488Z,23.15
2022-10-29T12:22:19.132Z,26.92
2022-10-29T12:25:26.052Z,18.80
2022-10-29T12:28:05.525Z,13.57
2022-10-29T12:33:10.505Z,15.35
2022-10-29T12:35:47.939Z,14.88
2022-10-29T12:38:40.807Z,13.15
2022-10-29T12:41:23.407Z,23.60
2022-10-29T12:43:51.653Z,20.45
2022-10-29T12:46:39.848Z,14.13
2022-10-29T12:49:37.973Z,17.55
2022-10-29T12:52:16.428Z,13.73
2022-10-29T12:54:49.683Z,14.23
2022-10-29T12:57:16.354Z,15.43
2022-10-29T12:59:44.578Z,12.82
2022-10-29T13:02:38.668Z,19.27
2022-10-29T13:05:11.214Z,23.33
2022-10-29T13:07:59.295Z,26.17
2022-10-29T13:10:35.492Z,18.25
2022-10-29T13:13:16.058Z,23.10
2022-10-29T13:15:48.075Z,18.52
2022-10-29T13:18:21.991Z,24.35
2022-10-29T13:20:51.291Z,26.27
2022-10-29T13:23:23.830Z,29.40
2022-10-29T13:25:57.284Z,18.85
2022-10-29T13:28:23.971Z,16.45
2022-10-29T13:31:13.525Z,21.30
2022-10-29T13:36:15.628Z,86.47
2022-10-29T13:39:04.603Z,29.73
2022-10-29T13:41:42.535Z,14.13
2022-10-29T13:44:19.312Z,14.57
2022-10-29T13:47:19.820Z,29.85
2022-10-29T13:49:48.612Z,14.35
2022-10-29T13:52:24.358Z,13.65
2022-10-29T13:55:00.479Z,18.73
2022-10-29T13:57:36.271Z,15.18
2022-10-29T14:00:11.960Z,18.70
2022-10-29T14:02:39.658Z,20.95
2022-10-29T14:05:13.370Z,13.20
2022-10-29T14:07:52.949Z,19.25
2022-10-29T14:10:59.270Z,19.95
2022-10-29T14:13:43.515Z,19.45
2022-10-29T14:16:12.121Z,15.35
2022-10-29T14:18:41.728Z,19.63
2022-10-29T14:23:57.410Z,11.90
2022-10-29T14:26:24.922Z,27.15
2022-10-29T14:28:52.597Z,16.67
2022-10-29T14:31:21.127Z,17.90
2022-10-29T14:33:59.002Z,14.32
2022-10-29T14:36:28.205Z,18.90
2022-10-29T14:39:03.145Z,37.80
2022-10-29T14:41:31.445Z,21.98
2022-10-29T14:44:04.092Z,29.35
2022-10-29T14:46:34.188Z,26.42
2022-10-29T14:49:12.371Z,30.23
2022-10-29T14:51:47.893Z,10.40
2022-10-29T14:54:22.713Z,23.70
2022-10-29T14:56:53.985Z,14.10
2022-10-29T14:59:26.427Z,19.02
2022-10-29T15:02:05.720Z,130.23
2022-10-29T15:04:56.758Z,43.85
2022-10-29T15:07:23.501Z,39.55
2022-10-29T15:10:01.766Z,24.90
2022-10-29T15:12:36.963Z,29.55
2022-10-29T15:15:21.147Z,47.00
2022-10-29T15:17:59.530Z,16.88
2022-10-29T15:20:44.470Z,33.57
2022-10-29T15:23:41.354Z,31.33
2022-10-29T15:26:14.210Z,39.08
2022-10-29T15:28:43.377Z,22.15
2022-10-29T15:31:24.312Z,27.23
2022-10-29T15:33:53.500Z,27.75
2022-10-29T15:36:20.790Z,34.13
2022-10-29T15:38:52.043Z,29.73
2022-10-29T15:41:46.291Z,33.78
2022-10-29T15:44:35.415Z,39.40
2022-10-29T15:47:18.783Z,71.60
2022-10-29T15:49:45.458Z,47.97
2022-10-29T15:52:17.631Z,34.28
2022-10-29T15:54:45.086Z,32.63
2022-10-29T15:57:14.370Z,35.35
2022-10-29T15:59:41.712Z,40.92
2022-10-29T16:02:13.644Z,34.55
2022-10-29T16:04:40.746Z,43.28
2022-10-29T16:07:12.492Z,31.15
2022-10-29T16:09:43.658Z,39.58
2022-10-29T16:12:10.975Z,48.60
2022-10-29T16:14:37.527Z,54.58
2022-10-29T16:17:10.350Z,73.07
2022-10-29T16:19:36.954Z,73.82
2022-10-29T16:22:03.553Z,55.47
2022-10-29T16:24:30.342Z,52.75
2022-10-29T16:26:56.977Z,51.58
2022-10-29T16:29:23.813Z,50.47
2022-10-29T16:31:50.353Z,42.15
2022-10-29T16:34:19.386Z,36.92
2022-10-29T16:36:48.875Z,41.67
2022-10-29T16:39:15.532Z,35.40
2022-10-29T16:41:42.200Z,37.90
2022-10-29T16:44:08.785Z,40.15
2022-10-29T16:46:35.337Z,37.78
2022-10-29T16:49:01.920Z,34.05
2022-10-29T16:51:28.522Z,36.72
2022-10-29T16:53:55.131Z,39.15
2022-10-29T16:56:21.819Z,37.30
2022-10-29T16:58:48.439Z,72.38
2022-10-29T17:01:15.296Z,34.85
2022-10-29T17:03:42.064Z,42.28
2022-10-29T17:06:10.483Z,34.35
2022-10-29T17:08:38.167Z,30.13
2022-10-29T17:11:06.682Z,30.25
2022-10-29T17:13:34.441Z,32.05
2022-10-29T17:16:01.271Z,38.25
2022-10-29T17:18:27.843Z,34.50
2022-10-29T17:20:59.112Z,37.97
2022-10-29T17:23:26.064Z,45.30
2022-10-29T17:25:57.289Z,37.65
2022-10-29T17:28:25.686Z,35.72
2022-10-29T17:30:52.625Z,32.30
2022-10-29T17:33:19.627Z,43.08
2022-10-29T17:35:46.267Z,31.35
2022-10-29T17:38:12.900Z,40.90
2022-10-29T17:40:39.913Z,36.60
2022-10-29T17:43:06.681Z,37.83
2022-10-29T17:45:33.354Z,34.20
2022-10-29T17:48:00.404Z,27.30
2022-10-29T17:50:27.386Z,30.30
2022-10-29T17:52:54.920Z,30.15
2022-10-29T17:55:21.458Z,34.70
2022-10-29T17:57:47.980Z,42.35
2022-10-29T18:00:15.233Z,42.75
2022-10-29T18:02:42.201Z,46.05
2022-10-29T18:05:09.121Z,32.92
2022-10-29T18:07:35.900Z,51.78
2022-10-29T18:10:02.552Z,39.95
2022-10-29T18:12:29.327Z,39.80
2022-10-29T18:14:56.058Z,27.65
2022-10-29T18:17:22.853Z,45.22
2022-10-29T18:19:49.801Z,38.70
2022-10-29T18:22:16.746Z,35.35
2022-10-29T18:24:43.433Z,39.67
2022-10-29T18:27:10.233Z,24.58
2022-10-29T18:29:36.887Z,29.33
2022-10-29T18:32:03.707Z,30.63
2022-10-29T18:34:31.754Z,38.03
2022-10-29T18:36:58.420Z,29.15
2022-10-29T18:39:25.227Z,34.55
2022-10-29T18:41:54.934Z,37.83
2022-10-29T18:44:21.520Z,40.55
2022-10-29T18:46:48.213Z,32.88
2022-10-29T18:49:15.563Z,35.90
2022-10-29T18:51:42.434Z,38.17
2022-10-29T18:54:11.838Z,44.08
2022-10-29T18:56:38.949Z,50.58
2022-10-29T18:59:05.841Z,40.42
2022-10-29T19:01:34.675Z,33.55
2022-10-29T19:04:04.017Z,37.13
2022-10-29T19:06:32.640Z,31.95
2022-10-29T19:09:04.451Z,34.92
2022-10-29T19:11:31.946Z,37.17
2022-10-29T19:14:01.088Z,28.70
2022-10-29T19:16:32.091Z,36.72
2022-10-29T19:19:00.965Z,29.05
2022-10-29T19:21:27.881Z,36.38
2022-10-29T19:23:59.662Z,36.78
2022-10-29T19:26:30.230Z,36.70
2022-10-29T19:28:59.976Z,33.95
2022-10-29T19:31:28.175Z,27.05
2022-10-29T19:33:58.002Z,29.90
2022-10-29T19:36:26.795Z,37.53
2022-10-29T19:38:53.709Z,34.73
2022-10-29T19:41:20.519Z,38.67
2022-10-29T19:43:47.310Z,30.48
2022-10-29T19:46:17.069Z,30.77
2022-10-29T19:51:15.316Z,41.40
2022-10-29T19:53:41.938Z,38.38
2022-10-29T19:56:11.507Z,36.55
2022-10-29T19:58:38.099Z,41.95
2022-10-29T20:01:07.388Z,39.97
2022-10-29T20:03:34.400Z,36.53
2022-10-29T20:06:00.979Z,36.30
2022-10-29T20:08:27.633Z,36.17
2022-10-29T20:10:55.870Z,37.17
2022-10-29T20:13:22.869Z,40.05
2022-10-29T20:15:49.734Z,37.88
2022-10-29T20:18:16.444Z,29.73
2022-10-29T20:20:43.314Z,22.67
2022-10-29T20:23:10.142Z,25.88
2022-10-29T20:25:39.646Z,28.08
2022-10-29T20:28:06.463Z,27.80
2022-10-29T20:30:33.066Z,31.02
2022-10-29T20:32:59.956Z,28.77
2022-10-29T20:35:26.781Z,29.15
2022-10-29T20:37:53.653Z,29.63
2022-10-29T20:40:20.384Z,28.65
2022-10-29T20:42:50.742Z,35.25
2022-10-29T20:45:19.604Z,27.73
2022-10-29T20:47:46.284Z,25.30
2022-10-29T20:50:12.928Z,26.23
2022-10-29T20:52:43.180Z,32.65
2022-10-29T20:55:12.396Z,27.20
2022-10-29T20:57:39.094Z,28.50
2022-10-29T21:00:06.636Z,24.05
2022-10-29T21:02:33.986Z,31.38
2022-10-29T21:05:00.661Z,29.45
2022-10-29T21:07:27.369Z,33.78
2022-10-29T21:09:53.975Z,31.02
2022-10-29T21:12:20.615Z,28.13
2022-10-29T21:14:47.324Z,27.38
2022-10-29T21:17:14.514Z,27.08
2022-10-29T21:19:41.157Z,30.70
2022-10-29T21:22:07.894Z,23.55
2022-10-29T21:24:35.610Z,25.25
2022-10-29T21:27:02.722Z,24.13
2022-10-29T21:29:29.391Z,22.92
2022-10-29T21:31:56.109Z,29.88
2022-10-29T21:34:23.097Z,22.58
2022-10-29T21:36:49.993Z,26.35
2022-10-29T21:39:18.755Z,21.27
2022-10-29T21:41:45.457Z,23.03
2022-10-29T21:44:12.184Z,22.33
2022-10-29T21:46:38.782Z,26.98
2022-10-29T21:49:05.479Z,27.67
2022-10-29T21:51:32.244Z,21.23
2022-10-29T21:53:58.867Z,19.10
2022-10-29T21:56:25.612Z,25.52
2022-10-29T21:58:55.048Z,21.77
2022-10-29T22:01:21.876Z,20.90
2022-10-29T22:03:48.807Z,20.63
2022-10-29T22:06:20.600Z,23.98
2022-10-29T22:08:51.863Z,20.02
2022-10-29T22:11:18.424Z,27.08
2022-10-29T22:13:45.063Z,22.25
2022-10-29T22:16:11.954Z,26.48
2022-10-29T22:18:39.480Z,21.05
2022-10-29T22:21:14.801Z,26.25
2022-10-29T22:23:43.375Z,24.42
2022-10-29T22:26:10.252Z,27.35
2022-10-29T22:28:36.870Z,30.27
2022-10-29T22:31:04.528Z,25.73
2022-10-29T22:33:32.032Z,26.63
2022-10-29T22:36:10.320Z,23.13
2022-10-29T22:38:37.405Z,25.77
2022-10-29T22:41:08.322Z,22.45
2022-10-29T22:43:35.502Z,28.20
2022-10-29T22:46:03.593Z,24.48
2022-10-29T22:48:30.496Z,26.67
2022-10-29T22:51:03.071Z,29.40
2022-10-29T22:53:30.165Z,32.78
2022-10-29T22:55:56.736Z,27.75
2022-10-29T22:58:23.484Z,34.38
2022-10-29T23:01:00.915Z,28.77
2022-10-29T23:03:27.512Z,22.77
2022-10-29T23:06:01.878Z,30.63
2022-10-29T23:08:29.174Z,25.88
2022-10-29T23:10:55.721Z,34.45
2022-10-29T23:13:22.341Z,29.17
2022-10-29T23:15:53.415Z,24.60
2022-10-29T23:18:20.061Z,25.70
2022-10-29T23:20:50.214Z,27.33
2022-10-29T23:23:17.129Z,32.60
2022-10-29T23:25:43.651Z,33.65
2022-10-29T23:28:10.201Z,25.73
2022-10-29T23:30:36.838Z,22.20
2022-10-29T23:33:03.551Z,27.95
2022-10-29T23:35:30.111Z,28.52
2022-10-29T23:37:57.027Z,21.92
2022-10-29T23:40:23.803Z,22.10
2022-10-29T23:42:50.370Z,23.20
2022-10-29T23:45:17.158Z,24.17
2022-10-29T23:47:43.852Z,32.45
2022-10-29T23:50:10.550Z,21.17
2022-10-29T23:52:37.202Z,20.98
2022-10-29T23:55:03.906Z,15.25
2022-10-29T23:57:30.522Z,19.52
2022-10-29T23:59:57.128Z,16.77
